createdAt,value
2022-11-05T00:01:34.780Z,26.77
2022-11-05T00:04:20.170Z,33.65
2022-11-05T00:07:05.863Z,43.90
2022-11-05T00:09:33.208Z,41.55
2022-11-05T00:12:23.528Z,33.78
2022-11-05T00:15:09.058Z,35.75
2022-11-05T00:17:36.135Z,39.67
2022-11-05T00:20:03.127Z,40.17
2022-11-05T00:22:50.160Z,43.58
2022-11-05T00:25:17.401Z,42.00
2022-11-05T00:27:48.329Z,43.70
2022-11-05T00:30:19.701Z,43.70
2022-11-05T00:32:47.412Z,41.33
2022-11-05T00:35:14.507Z,43.97
2022-11-05T00:37:45.637Z,42.40
2022-11-05T00:40:15.649Z,40.10
2022-11-05T00:43:01.817Z,42.25
2022-11-05T00:45:29.521Z,41.40
2022-11-05T00:48:15.246Z,41.40
2022-11-05T00:50:42.131Z,39.45
2022-11-05T00:53:09.212Z,36.00
2022-11-05T00:55:43.277Z,36.33
2022-11-05T00:58:11.645Z,38.05
2022-11-05T01:00:39.885Z,39.75
2022-11-05T01:03:08.417Z,44.72
2022-11-05T01:05:38.414Z,38.33
2022-11-05T01:08:05.522Z,39.38
2022-11-05T01:10:32.357Z,39.15
2022-11-05T01:12:59.281Z,40.88
2022-11-05T01:15:26.048Z,38.72
2022-11-05T01:17:52.832Z,38.72
2022-11-05T01:20:19.728Z,39.63
2022-11-05T01:22:46.490Z,40.60
2022-11-05T01:25:13.278Z,36.13
2022-11-05T01:27:40.238Z,29.45
2022-11-05T01:30:08.033Z,29.60
2022-11-05T01:32:36.618Z,32.20
2022-11-05T01:35:07.883Z,32.80
2022-11-05T01:37:35.021Z,30.60
2022-11-05T01:40:02.116Z,30.13
2022-11-05T01:42:31.453Z,25.15
2022-11-05T01:45:04.498Z,26.85
2022-11-05T01:47:43.010Z,25.17
2022-11-05T01:50:28.517Z,25.58
2022-11-05T01:52:58.501Z,23.27
2022-11-05T01:55:27.048Z,24.13
2022-11-05T01:57:54.764Z,25.50
2022-11-05T02:00:21.558Z,23.55
2022-11-05T02:02:48.430Z,22.00
2022-11-05T02:05:15.818Z,22.38
2022-11-05T02:07:45.454Z,21.00
2022-11-05T02:10:18.054Z,21.58
2022-11-05T02:12:46.257Z,19.98
2022-11-05T02:15:14.136Z,18.95
2022-11-05T02:17:46.888Z,18.13
2022-11-05T02:20:31.433Z,17.65
2022-11-05T02:23:16.951Z,18.27
2022-11-05T02:26:02.292Z,17.13
2022-11-05T02:28:35.047Z,17.27
2022-11-05T02:31:12.881Z,11.98
2022-11-05T02:33:57.135Z,8.80
2022-11-05T02:36:36.212Z,12.80
2022-11-05T02:39:12.402Z,6.00
2022-11-05T02:42:04.974Z,11.40
2022-11-05T02:44:32.045Z,7.20
2022-11-05T02:47:05.868Z,4.35
2022-11-05T02:49:41.101Z,7.68
2022-11-05T02:52:12.082Z,6.30
2022-11-05T02:54:43.095Z,6.20
2022-11-05T02:57:09.875Z,7.32
2022-11-05T02:59:36.616Z,8.52
2022-11-05T03:02:03.962Z,12.02
2022-11-05T03:04:32.215Z,14.20
2022-11-05T03:07:25.619Z,22.08
2022-11-05T03:10:11.049Z,23.60
2022-11-05T03:12:51.477Z,24.80
2022-11-05T03:15:30.448Z,23.95
2022-11-05T03:17:57.286Z,22.25
2022-11-05T03:20:28.744Z,23.00
2022-11-05T03:23:09.773Z,27.65
2022-11-05T03:25:43.310Z,24.23
2022-11-05T03:28:10.803Z,29.50
2022-11-05T03:30:39.246Z,24.98
2022-11-05T03:33:09.146Z,22.67
2022-11-05T03:35:42.226Z,24.05
2022-11-05T03:38:13.506Z,22.55
2022-11-05T03:40:41.473Z,12.15
2022-11-05T03:43:09.090Z,8.23
2022-11-05T03:45:42.024Z,4.78
2022-11-05T03:48:10.950Z,3.38
2022-11-05T03:50:45.182Z,2.92
2022-11-05T03:53:15.545Z,3.05
2022-11-05T03:55:46.468Z,2.83
2022-11-05T03:58:13.913Z,2.67
2022-11-05T04:00:40.744Z,3.13
2022-11-05T04:03:07.689Z,2.78
2022-11-05T04:05:34.583Z,2.75
2022-11-05T04:08:19.967Z,2.72
2022-11-05T04:11:05.298Z,2.67
2022-11-05T04:13:32.523Z,2.63
2022-11-05T04:16:17.965Z,2.42
2022-11-05T04:18:44.770Z,2.88
2022-11-05T04:21:30.584Z,2.22
2022-11-05T04:24:10.162Z,2.50
2022-11-05T04:26:36.882Z,2.70
2022-11-05T04:29:22.706Z,2.47
2022-11-05T04:31:49.882Z,2.20
2022-11-05T04:34:18.796Z,2.75
2022-11-05T04:36:46.251Z,2.67
2022-11-05T04:39:13.021Z,2.70
2022-11-05T04:41:39.793Z,2.45
2022-11-05T04:44:06.573Z,2.67
2022-11-05T04:46:33.324Z,2.67
2022-11-05T04:49:00.121Z,2.45
2022-11-05T04:51:27.342Z,2.45
2022-11-05T04:53:54.114Z,2.13
2022-11-05T04:56:22.667Z,2.40
2022-11-05T04:58:49.541Z,2.40
2022-11-05T05:01:17.825Z,2.47
2022-11-05T05:03:46.700Z,2.60
2022-11-05T05:06:13.687Z,2.22
2022-11-05T05:08:40.529Z,2.30
2022-11-05T05:11:08.736Z,2.30
2022-11-05T05:13:35.650Z,2.38
2022-11-05T05:16:09.083Z,2.30
2022-11-05T05:18:36.004Z,2.08
2022-11-05T05:21:21.551Z,2.20
2022-11-05T05:23:48.498Z,2.30
2022-11-05T05:26:15.706Z,2.13
2022-11-05T05:28:42.511Z,2.17
2022-11-05T05:31:09.460Z,2.10
2022-11-05T05:33:36.225Z,1.90
2022-11-05T05:36:08.394Z,2.40
2022-11-05T05:38:37.966Z,2.03
2022-11-05T05:41:04.769Z,2.25
2022-11-05T05:43:34.549Z,2.17
2022-11-05T05:46:02.379Z,2.42
2022-11-05T05:48:29.176Z,2.60
2022-11-05T05:50:59.877Z,2.22
2022-11-05T05:53:26.651Z,1.92
2022-11-05T05:55:53.907Z,2.35
2022-11-05T05:58:20.786Z,2.22
2022-11-05T06:00:47.769Z,2.15
2022-11-05T06:03:14.789Z,2.20
2022-11-05T06:05:41.808Z,2.20
2022-11-05T06:08:08.646Z,2.50
2022-11-05T06:10:35.747Z,2.22
2022-11-05T06:13:02.798Z,2.15
2022-11-05T06:15:35.485Z,1.90
2022-11-05T06:18:02.731Z,2.50
2022-11-05T06:20:29.524Z,2.38
2022-11-05T06:22:56.914Z,2.00
2022-11-05T06:25:24.071Z,2.10
2022-11-05T06:27:50.991Z,1.98
2022-11-05T06:30:17.861Z,2.20
2022-11-05T06:32:44.900Z,1.77
2022-11-05T06:35:11.689Z,2.33
2022-11-05T06:37:38.548Z,2.20
2022-11-05T06:40:06.127Z,1.98
2022-11-05T06:42:32.917Z,1.70
2022-11-05T06:44:59.666Z,1.75
2022-11-05T06:47:26.555Z,1.80
2022-11-05T06:49:53.361Z,2.00
2022-11-05T06:52:20.407Z,1.83
2022-11-05T06:54:47.314Z,2.00
2022-11-05T06:57:14.069Z,1.80
2022-11-05T06:59:41.223Z,1.58
2022-11-05T07:02:10.599Z,2.20
2022-11-05T07:04:37.479Z,1.65
2022-11-05T07:07:04.247Z,2.05
2022-11-05T07:09:30.979Z,2.22
2022-11-05T07:11:57.803Z,2.17
2022-11-05T07:14:24.559Z,2.08
2022-11-05T07:16:51.355Z,2.00
2022-11-05T07:19:18.127Z,1.95
2022-11-05T07:21:45.969Z,1.80
2022-11-05T07:24:14.400Z,2.35
2022-11-05T07:26:41.492Z,2.13
2022-11-05T07:29:08.293Z,2.05
2022-11-05T07:31:35.141Z,2.00
2022-11-05T07:34:01.965Z,2.20
2022-11-05T07:36:28.799Z,1.77
2022-11-05T07:39:00.110Z,1.98
2022-11-05T07:41:27.486Z,2.17
2022-11-05T07:43:54.288Z,2.50
2022-11-05T07:46:21.040Z,2.28
2022-11-05T07:48:47.834Z,2.20
2022-11-05T07:51:14.568Z,2.08
2022-11-05T07:53:45.319Z,1.98
2022-11-05T07:56:13.039Z,2.20
2022-11-05T07:58:39.831Z,2.30
2022-11-05T08:01:07.342Z,2.20
2022-11-05T08:03:34.648Z,2.00
2022-11-05T08:06:01.556Z,2.00
2022-11-05T08:08:28.335Z,2.25
2022-11-05T08:11:01.792Z,2.38
2022-11-05T08:13:28.548Z,1.88
2022-11-05T08:15:56.599Z,1.92
2022-11-05T08:18:23.828Z,2.28
2022-11-05T08:20:50.573Z,1.95
2022-11-05T08:23:17.365Z,2.05
2022-11-05T08:25:44.145Z,2.30
2022-11-05T08:28:11.745Z,2.00
2022-11-05T08:30:38.516Z,2.47
2022-11-05T08:33:06.840Z,2.38
2022-11-05T08:35:34.302Z,2.42
2022-11-05T08:38:02.851Z,2.50
2022-11-05T08:40:30.806Z,2.33
2022-11-05T08:42:58.305Z,2.42
2022-11-05T08:45:25.633Z,2.42
2022-11-05T08:47:58.350Z,2.65
2022-11-05T08:50:25.163Z,2.58
2022-11-05T08:52:51.954Z,2.83
2022-11-05T08:55:19.597Z,2.72
2022-11-05T08:57:46.481Z,2.53
2022-11-05T09:00:14.162Z,2.70
2022-11-05T09:02:41.233Z,2.72
2022-11-05T09:05:08.341Z,2.92
2022-11-05T09:07:35.106Z,2.60
2022-11-05T09:10:01.890Z,2.70
2022-11-05T09:12:28.674Z,2.65
2022-11-05T09:14:55.414Z,3.08
2022-11-05T09:17:22.201Z,3.00
2022-11-05T09:19:48.960Z,2.50
2022-11-05T09:22:15.852Z,2.60
2022-11-05T09:24:43.314Z,2.72
2022-11-05T09:27:10.608Z,2.63
2022-11-05T09:29:37.729Z,2.67
2022-11-05T09:32:04.586Z,2.65
2022-11-05T09:34:31.357Z,2.88
2022-11-05T09:36:58.238Z,2.53
2022-11-05T09:39:25.167Z,3.17
2022-11-05T09:41:53.047Z,3.45
2022-11-05T09:44:25.816Z,3.15
2022-11-05T09:46:57.740Z,3.35
2022-11-05T09:49:27.657Z,3.33
2022-11-05T09:51:55.780Z,3.13
2022-11-05T09:54:24.863Z,2.67
2022-11-05T09:56:52.957Z,2.63
2022-11-05T09:59:31.680Z,2.88
2022-11-05T10:02:03.173Z,3.05
2022-11-05T10:04:33.035Z,2.60
2022-11-05T10:07:02.368Z,2.63
2022-11-05T10:09:32.937Z,2.90
2022-11-05T10:12:06.485Z,2.60
2022-11-05T10:14:45.645Z,2.55
2022-11-05T10:17:12.377Z,2.35
2022-11-05T10:19:44.455Z,2.58
2022-11-05T10:22:16.313Z,2.53
2022-11-05T10:24:44.408Z,2.55
2022-11-05T10:27:14.659Z,3.22
2022-11-05T10:29:42.892Z,2.83
2022-11-05T10:32:14.728Z,2.22
2022-11-05T10:34:42.016Z,2.08
2022-11-05T10:37:09.401Z,2.30
2022-11-05T10:39:36.462Z,1.88
2022-11-05T10:42:08.961Z,1.98
2022-11-05T10:44:47.513Z,2.13
2022-11-05T10:47:23.134Z,1.65
2022-11-05T10:50:00.293Z,1.70
2022-11-05T10:52:37.827Z,1.90
2022-11-05T10:55:06.975Z,1.85
2022-11-05T10:57:39.160Z,1.70
2022-11-05T11:00:15.511Z,2.00
2022-11-05T11:02:43.182Z,1.80
2022-11-05T11:05:24.861Z,1.80
2022-11-05T11:08:15.078Z,2.03
2022-11-05T11:10:47.953Z,2.20
2022-11-05T11:13:19.414Z,2.28
2022-11-05T11:18:40.257Z,1.92
2022-11-05T11:21:15.136Z,2.08
2022-11-05T11:23:42.793Z,2.58
2022-11-05T11:26:11.222Z,2.45
2022-11-05T11:28:39.914Z,2.45
2022-11-05T11:31:14.057Z,2.28
2022-11-05T11:33:42.484Z,2.22
2022-11-05T11:36:13.969Z,2.03
2022-11-05T11:41:22.889Z,2.38
2022-11-05T11:43:54.274Z,2.47
2022-11-05T11:46:21.250Z,2.88
2022-11-05T11:48:48.859Z,2.60
2022-11-05T11:51:36.856Z,2.97
2022-11-05T11:54:04.497Z,2.80
2022-11-05T11:56:43.060Z,2.72
2022-11-05T11:59:35.130Z,2.83
2022-11-05T12:02:25.169Z,2.88
2022-11-05T12:05:06.714Z,3.05
2022-11-05T12:07:52.928Z,2.67
2022-11-05T12:10:51.916Z,2.72
2022-11-05T12:13:18.692Z,2.50
2022-11-05T12:16:04.095Z,2.67
2022-11-05T12:18:37.013Z,2.80
2022-11-05T12:21:13.683Z,2.42
2022-11-05T12:23:59.272Z,2.70
2022-11-05T12:26:35.845Z,2.88
2022-11-05T12:29:19.717Z,2.45
2022-11-05T12:34:33.599Z,2.30
2022-11-05T12:37:06.276Z,2.33
2022-11-05T12:39:43.966Z,2.50
2022-11-05T12:42:10.737Z,2.63
2022-11-05T12:44:43.552Z,2.78
2022-11-05T12:47:16.273Z,2.50
2022-11-05T12:50:00.709Z,2.50
2022-11-05T12:52:35.635Z,2.65
2022-11-05T12:55:11.622Z,2.58
2022-11-05T12:57:40.756Z,2.75
2022-11-05T13:00:14.251Z,2.65
2022-11-05T13:02:47.538Z,2.80
2022-11-05T13:05:19.828Z,2.90
2022-11-05T13:07:56.565Z,3.00
2022-11-05T13:10:30.008Z,2.80
2022-11-05T13:13:18.136Z,2.40
2022-11-05T13:15:50.780Z,2.13
2022-11-05T13:18:21.418Z,2.35
2022-11-05T13:20:49.917Z,2.58
2022-11-05T13:23:20.529Z,2.97
2022-11-05T13:25:53.149Z,2.13
2022-11-05T13:28:25.879Z,2.20
2022-11-05T13:30:54.415Z,2.20
2022-11-05T13:33:23.686Z,1.92
2022-11-05T13:36:17.117Z,2.53
2022-11-05T13:38:59.439Z,2.25
2022-11-05T13:41:28.995Z,2.00
2022-11-05T13:44:01.684Z,2.03
2022-11-05T13:46:31.432Z,2.00
2022-11-05T13:49:16.533Z,1.90
2022-11-05T13:51:51.520Z,2.00
2022-11-05T13:54:44.835Z,1.65
2022-11-05T13:57:14.412Z,2.20
2022-11-05T13:59:46.826Z,1.95
2022-11-05T14:02:17.115Z,2.22
2022-11-05T14:04:49.190Z,1.95
2022-11-05T14:07:27.894Z,1.90
2022-11-05T14:09:59.222Z,2.10
2022-11-05T14:12:28.248Z,2.03
2022-11-05T14:14:59.385Z,1.83
2022-11-05T14:17:28.330Z,1.60
2022-11-05T14:20:07.033Z,1.80
2022-11-05T14:22:33.826Z,1.80
2022-11-05T14:25:01.260Z,2.13
2022-11-05T14:27:36.975Z,1.77
2022-11-05T14:30:22.686Z,1.70
2022-11-05T14:32:50.793Z,1.60
2022-11-05T14:35:33.428Z,2.20
2022-11-05T14:38:00.307Z,2.10
2022-11-05T14:40:33.272Z,1.90
2022-11-05T14:43:02.146Z,1.75
2022-11-05T14:45:37.876Z,1.60
2022-11-05T14:48:25.955Z,1.60
2022-11-05T14:50:52.992Z,1.70
2022-11-05T14:53:32.171Z,1.95
2022-11-05T14:55:58.918Z,1.40
2022-11-05T14:58:27.979Z,1.92
2022-11-05T15:00:55.754Z,2.30
2022-11-05T15:03:33.261Z,1.55
2022-11-05T15:06:26.588Z,1.83
2022-11-05T15:09:11.402Z,2.05
2022-11-05T15:11:46.153Z,1.80
2022-11-05T15:14:26.432Z,1.88
2022-11-05T15:16:54.710Z,1.60
2022-11-05T15:19:30.849Z,1.67
2022-11-05T15:22:01.130Z,2.72
2022-11-05T15:24:28.287Z,2.10
2022-11-05T15:26:58.325Z,1.88
2022-11-05T15:29:26.522Z,1.63
2022-11-05T15:31:53.384Z,1.30
2022-11-05T15:34:24.613Z,1.40
2022-11-05T15:37:02.001Z,1.42
2022-11-05T15:39:33.709Z,1.35
2022-11-05T15:42:01.899Z,1.20
2022-11-05T15:44:31.868Z,1.27
2022-11-05T15:47:13.822Z,1.38
2022-11-05T15:49:41.878Z,1.48
2022-11-05T15:52:10.995Z,1.00
2022-11-05T15:54:38.233Z,1.15
2022-11-05T15:57:05.260Z,1.50
2022-11-05T15:59:32.139Z,1.10
2022-11-05T16:02:05.937Z,1.40
2022-11-05T16:04:33.891Z,1.40
2022-11-05T16:07:06.631Z,1.10
2022-11-05T16:09:34.795Z,0.88
2022-11-05T16:12:14.501Z,1.00
2022-11-05T16:14:41.775Z,1.00
2022-11-05T16:17:18.505Z,0.90
2022-11-05T16:19:45.446Z,1.02
2022-11-05T16:22:12.285Z,1.13
2022-11-05T16:24:39.106Z,1.00
2022-11-05T16:27:06.326Z,1.63
2022-11-05T16:29:34.688Z,1.30
2022-11-05T16:32:06.279Z,1.10
2022-11-05T16:34:40.655Z,1.00
2022-11-05T16:37:11.053Z,0.90
2022-11-05T16:39:37.870Z,1.30
2022-11-05T16:42:20.050Z,1.20
2022-11-05T16:44:46.817Z,1.25
2022-11-05T16:47:13.602Z,1.20
2022-11-05T16:49:40.481Z,1.40
2022-11-05T16:52:10.583Z,1.83
2022-11-05T16:54:37.435Z,1.52
2022-11-05T16:57:08.509Z,1.48
2022-11-05T16:59:35.359Z,1.50
2022-11-05T17:02:02.252Z,1.67
2022-11-05T17:04:29.132Z,1.58
2022-11-05T17:06:55.883Z,1.00
2022-11-05T17:09:22.641Z,1.40
2022-11-05T17:11:49.476Z,2.60
2022-11-05T17:14:16.194Z,1.45
2022-11-05T17:16:43.040Z,4.15
2022-11-05T17:19:15.843Z,4.43
2022-11-05T17:21:42.711Z,5.03
2022-11-05T17:24:09.469Z,6.95
2022-11-05T17:26:36.292Z,10.45
2022-11-05T17:29:03.029Z,8.55
2022-11-05T17:31:29.787Z,7.00
2022-11-05T17:33:57.026Z,5.82
2022-11-05T17:36:23.961Z,6.40
2022-11-05T17:38:50.926Z,11.15
2022-11-05T17:41:19.096Z,14.48
2022-11-05T17:43:46.381Z,9.07
2022-11-05T17:46:16.804Z,11.95
2022-11-05T17:48:44.717Z,8.45
2022-11-05T17:51:15.143Z,13.75
2022-11-05T17:53:42.471Z,10.80
2022-11-05T17:56:10.109Z,24.20
2022-11-05T17:58:37.347Z,22.13
2022-11-05T18:01:07.041Z,17.88
2022-11-05T18:03:34.265Z,36.03
2022-11-05T18:06:02.138Z,23.35
2022-11-05T18:08:28.897Z,24.33
2022-11-05T18:10:55.794Z,24.27
2022-11-05T18:13:22.596Z,21.90
2022-11-05T18:15:53.109Z,35.25
2022-11-05T18:18:19.960Z,23.92
2022-11-05T18:20:46.754Z,23.15
2022-11-05T18:23:14.403Z,53.83
2022-11-05T18:25:41.836Z,13.88
2022-11-05T18:28:08.683Z,30.50
2022-11-05T18:30:37.710Z,30.17
2022-11-05T18:33:04.562Z,8.70
2022-11-05T18:35:31.326Z,5.20
2022-11-05T18:37:58.111Z,8.10
2022-11-05T18:40:24.922Z,9.70
2022-11-05T18:42:51.692Z,6.32
2022-11-05T18:45:18.466Z,9.25
2022-11-05T18:47:45.243Z,13.65
2022-11-05T18:50:12.095Z,20.80
2022-11-05T18:52:38.939Z,10.68
2022-11-05T18:55:06.017Z,22.67
2022-11-05T18:57:33.565Z,21.48
2022-11-05T19:00:00.549Z,14.57
2022-11-05T19:02:27.404Z,9.63
2022-11-05T19:05:26.715Z,14.77
2022-11-05T19:07:41.151Z,11.68
2022-11-05T19:10:08.096Z,7.28
2022-11-05T19:12:34.862Z,10.07
2022-11-05T19:15:02.974Z,7.68
2022-11-05T19:17:31.840Z,7.32
2022-11-05T19:19:58.597Z,7.97
2022-11-05T19:22:26.052Z,9.10
2022-11-05T19:24:53.090Z,6.95
2022-11-05T19:27:20.071Z,6.68
2022-11-05T19:29:47.689Z,6.95
2022-11-05T19:32:14.852Z,4.53
2022-11-05T19:34:41.613Z,7.90
2022-11-05T19:37:08.444Z,3.80
2022-11-05T19:39:35.702Z,2.83
2022-11-05T19:42:03.909Z,2.30
2022-11-05T19:44:31.503Z,2.65
2022-11-05T19:46:58.445Z,2.40
2022-11-05T19:49:25.262Z,4.38
2022-11-05T19:51:52.109Z,4.43
2022-11-05T19:54:18.874Z,5.10
2022-11-05T19:56:45.805Z,5.70
2022-11-05T19:59:12.976Z,8.55
2022-11-05T20:01:39.903Z,5.18
2022-11-05T20:04:06.869Z,3.50
2022-11-05T20:06:38.786Z,3.53
2022-11-05T20:09:21.138Z,3.40
2022-11-05T20:11:49.857Z,4.22
2022-11-05T20:14:16.661Z,4.25
2022-11-05T20:16:43.513Z,4.90
2022-11-05T20:19:11.280Z,7.32
2022-11-05T20:21:38.347Z,9.38
2022-11-05T20:24:05.568Z,10.60
2022-11-05T20:26:32.934Z,11.65
2022-11-05T20:29:00.124Z,11.73
2022-11-05T20:31:26.877Z,11.65
2022-11-05T20:33:54.797Z,12.75
2022-11-05T20:36:22.991Z,12.80
2022-11-05T20:38:50.389Z,14.52
2022-11-05T20:41:17.518Z,15.07
2022-11-05T20:43:44.799Z,15.10
2022-11-05T20:46:12.574Z,15.38
2022-11-05T20:48:40.520Z,13.75
2022-11-05T20:51:09.014Z,13.65
2022-11-05T20:53:36.261Z,13.90
2022-11-05T20:56:07.647Z,13.52
2022-11-05T20:58:35.354Z,13.50
2022-11-05T21:01:02.432Z,14.68
2022-11-05T21:03:29.242Z,14.77
2022-11-05T21:05:59.845Z,12.77
2022-11-05T21:08:27.665Z,13.45
2022-11-05T21:10:55.042Z,12.05
2022-11-05T21:13:22.160Z,11.93
2022-11-05T21:15:50.266Z,11.23
2022-11-05T21:18:18.123Z,8.65
2022-11-05T21:20:45.701Z,8.95
2022-11-05T21:23:13.269Z,7.43
2022-11-05T21:25:40.687Z,7.60
2022-11-05T21:28:08.149Z,7.63
2022-11-05T21:30:36.503Z,7.00
2022-11-05T21:33:04.216Z,6.97
2022-11-05T21:35:31.212Z,5.18
2022-11-05T21:37:58.070Z,4.57
2022-11-05T21:40:24.994Z,5.03
2022-11-05T21:42:51.933Z,4.82
2022-11-05T21:45:18.689Z,5.10
2022-11-05T21:47:45.488Z,4.97
2022-11-05T21:50:12.279Z,4.80
2022-11-05T21:52:57.561Z,5.07
2022-11-05T21:55:42.725Z,5.60
2022-11-05T21:58:32.164Z,5.50
2022-11-05T22:01:00.147Z,5.05
2022-11-05T22:03:27.078Z,5.65
2022-11-05T22:05:55.663Z,6.35
2022-11-05T22:08:22.653Z,6.70
2022-11-05T22:10:49.401Z,7.25
2022-11-05T22:13:16.204Z,9.02
2022-11-05T22:15:42.967Z,9.50
2022-11-05T22:18:10.025Z,8.80
2022-11-05T22:20:37.783Z,8.23
2022-11-05T22:23:08.558Z,7.55
2022-11-05T22:25:37.830Z,5.97
2022-11-05T22:28:04.666Z,6.25
2022-11-05T22:30:35.489Z,5.53
2022-11-05T22:33:02.705Z,5.65
2022-11-05T22:35:29.457Z,4.70
2022-11-05T22:37:56.247Z,4.50
2022-11-05T22:40:24.106Z,3.70
2022-11-05T22:42:51.065Z,3.63
2022-11-05T22:45:20.843Z,3.42
2022-11-05T22:47:47.866Z,3.75
2022-11-05T22:50:14.646Z,3.75
2022-11-05T22:52:41.415Z,3.70
2022-11-05T22:55:08.381Z,3.30
2022-11-05T22:57:35.106Z,3.65
2022-11-05T23:00:01.893Z,2.80
2022-11-05T23:02:28.854Z,3.00
2022-11-05T23:04:55.671Z,2.38
2022-11-05T23:07:40.897Z,2.42
2022-11-05T23:10:27.870Z,2.28
2022-11-05T23:12:55.312Z,2.42
2022-11-05T23:15:41.104Z,2.40
2022-11-05T23:18:27.174Z,2.22
2022-11-05T23:21:12.725Z,1.95
2022-11-05T23:23:58.340Z,2.10
2022-11-05T23:26:43.795Z,1.90
2022-11-05T23:29:10.566Z,1.80
2022-11-05T23:31:55.733Z,1.55
2022-11-05T23:34:22.538Z,1.27
2022-11-05T23:37:07.720Z,1.48
2022-11-05T23:39:39.655Z,1.40
2022-11-05T23:42:27.871Z,1.40
2022-11-05T23:45:14.789Z,1.50
2022-11-05T23:48:00.484Z,1.40
2022-11-05T23:50:27.517Z,1.63
2022-11-05T23:52:54.279Z,1.60
2022-11-05T23:55:21.634Z,1.60
2022-11-05T23:57:48.846Z,1.60
